sensor_id;sensor_type;location;lat;lon;timestamp;pressure;altitude;pressure_sealevel;temperature;humidity
16431;BME280;8325;49.284;7.238;2023-07-28T04:01:32;98002.81;;;16.99;100.00
16431;BME280;8325;49.284;7.238;2023-07-28T04:05:44;98006.50;;;16.98;100.00
16431;BME280;8325;49.284;7.238;2023-07-28T04:09:56;98004.91;;;16.97;100.00
16431;BME280;8325;49.284;7.238;2023-07-28T04:14:07;98003.72;;;16.93;100.00
16431;BME280;8325;49.284;7.238;2023-07-28T04:18:19;98011.78;;;16.98;100.00
16431;BME280;8325;49.284;7.238;2023-07-28T04:22:31;98011.56;;;16.99;100.00
16431;BME280;8325;49.284;7.238;2023-07-28T04:26:44;98009.72;;;17.00;100.00
16431;BME280;8325;49.284;7.238;2023-07-28T04:31:00;98009.03;;;17.05;100.00
16431;BME280;8325;49.284;7.238;2023-07-28T04:35:34;98011.91;;;17.03;100.00
16431;BME280;8325;49.284;7.238;2023-07-28T04:39:58;98014.63;;;17.08;100.00
16431;BME280;8325;49.284;7.238;2023-07-28T04:44:15;98023.16;;;17.10;100.00
16431;BME280;8325;49.284;7.238;2023-07-28T04:48:28;98024.53;;;17.13;100.00
16431;BME280;8325;49.284;7.238;2023-07-28T04:52:41;98031.84;;;17.11;100.00
16431;BME280;8325;49.284;7.238;2023-07-28T04:57:21;98031.50;;;17.07;100.00
16431;BME280;8325;49.284;7.238;2023-07-28T05:01:33;98043.66;;;17.08;100.00
16431;BME280;8325;49.284;7.238;2023-07-28T05:05:47;98036.34;;;17.10;100.00
16431;BME280;8325;49.284;7.238;2023-07-28T05:09:59;98037.38;;;17.09;100.00
16431;BME280;8325;49.284;7.238;2023-07-28T05:14:13;98043.22;;;17.11;100.00
16431;BME280;8325;49.284;7.238;2023-07-28T05:18:25;98046.44;;;17.13;100.00
16431;BME280;8325;49.284;7.238;2023-07-28T05:22:57;98052.28;;;17.15;100.00
16431;BME280;8325;49.284;7.238;2023-07-28T05:27:13;98052.06;;;17.17;100.00
16431;BME280;8325;49.284;7.238;2023-07-28T05:31:28;98049.19;;;17.18;100.00
16431;BME280;8325;49.284;7.238;2023-07-28T05:35:39;98062.94;;;17.20;100.00
16431;BME280;8325;49.284;7.238;2023-07-28T05:39:51;98054.56;;;17.23;100.00
16431;BME280;8325;49.284;7.238;2023-07-28T05:44:04;98056.75;;;17.26;100.00
16431;BME280;8325;49.284;7.238;2023-07-28T05:48:16;98061.59;;;17.30;100.00
16431;BME280;8325;49.284;7.238;2023-07-28T05:52:28;98064.81;;;17.32;100.00
16431;BME280;8325;49.284;7.238;2023-07-28T05:56:39;98071.22;;;17.36;100.00
16431;BME280;8325;49.284;7.238;2023-07-28T06:00:51;98075.25;;;17.38;100.00
16431;BME280;8325;49.284;7.238;2023-07-28T06:05:23;98072.16;;;17.41;100.00
16431;BME280;8325;49.284;7.238;2023-07-28T06:09:34;98076.75;;;17.46;100.00
16431;BME280;8325;49.284;7.238;2023-07-28T06:13:46;98082.25;;;17.56;100.00
16431;BME280;8325;49.284;7.238;2023-07-28T06:17:59;98084.44;;;17.59;100.00
16431;BME280;8325;49.284;7.238;2023-07-28T06:22:11;98083.66;;;17.59;100.00
16431;BME280;8325;49.284;7.238;2023-07-28T06:26:28;98092.38;;;17.59;100.00
16431;BME280;8325;49.284;7.238;2023-07-28T06:30:40;98094.53;;;17.74;100.00
16431;BME280;8325;49.284;7.238;2023-07-28T06:34:51;98102.72;;;17.84;100.00
16431;BME280;8325;49.284;7.238;2023-07-28T06:39:03;98104.56;;;17.84;100.00
16431;BME280;8325;49.284;7.238;2023-07-28T06:43:16;98109.97;;;17.77;100.00
16431;BME280;8325;49.284;7.238;2023-07-28T06:47:31;98111.78;;;17.77;100.00
16431;BME280;8325;49.284;7.238;2023-07-28T06:51:43;98115.66;;;17.74;100.00
16431;BME280;8325;49.284;7.238;2023-07-28T06:55:55;98125.19;;;17.75;100.00
16431;BME280;8325;49.284;7.238;2023-07-28T07:00:08;98125.44;;;17.74;100.00
16431;BME280;8325;49.284;7.238;2023-07-28T07:04:23;98136.47;;;17.70;100.00
16431;BME280;8325;49.284;7.238;2023-07-28T07:08:34;98142.22;;;17.67;100.00
16431;BME280;8325;49.284;7.238;2023-07-28T07:12:47;98134.28;;;17.67;100.00
16431;BME280;8325;49.284;7.238;2023-07-28T07:16:58;98129.69;;;17.75;100.00
16431;BME280;8325;49.284;7.238;2023-07-28T07:21:10;98130.97;;;17.84;100.00
16431;BME280;8325;49.284;7.238;2023-07-28T07:25:22;98134.53;;;17.89;100.00
16431;BME280;8325;49.284;7.238;2023-07-28T07:29:33;98144.63;;;17.92;100.00
16431;BME280;8325;49.284;7.238;2023-07-28T07:33:45;98152.56;;;17.92;100.00
16431;BME280;8325;49.284;7.238;2023-07-28T07:37:57;98146.34;;;17.99;100.00
16431;BME280;8325;49.284;7.238;2023-07-28T07:42:09;98146.81;;;18.07;100.00
16431;BME280;8325;49.284;7.238;2023-07-28T07:46:22;98144.84;;;18.14;100.00
16431;BME280;8325;49.284;7.238;2023-07-28T07:50:34;98151.50;;;18.17;100.00
16431;BME280;8325;49.284;7.238;2023-07-28T07:54:45;98162.88;;;18.17;100.00
16431;BME280;8325;49.284;7.238;2023-07-28T07:58:57;98158.00;;;18.38;100.00
16431;BME280;8325;49.284;7.238;2023-07-28T08:03:09;98154.81;;;18.64;100.00
16431;BME280;8325;49.284;7.238;2023-07-28T08:07:21;98139.13;;;18.86;100.00
16431;BME280;8325;49.284;7.238;2023-07-28T08:11:34;98144.19;;;19.05;100.00
16431;BME280;8325;49.284;7.238;2023-07-28T08:15:46;98150.00;;;19.19;100.00
16431;BME280;8325;49.284;7.238;2023-07-28T08:19:58;98150.75;;;19.31;100.00
16431;BME280;8325;49.284;7.238;2023-07-28T08:24:09;98157.00;;;19.42;100.00
16431;BME280;8325;49.284;7.238;2023-07-28T08:28:21;98159.00;;;19.35;100.00
16431;BME280;8325;49.284;7.238;2023-07-28T08:32:33;98150.41;;;19.44;100.00
16431;BME280;8325;49.284;7.238;2023-07-28T08:36:45;98141.59;;;19.55;100.00
16431;BME280;8325;49.284;7.238;2023-07-28T08:40:56;98144.50;;;19.71;100.00
16431;BME280;8325;49.284;7.238;2023-07-28T08:45:10;98132.78;;;19.67;100.00
16431;BME280;8325;49.284;7.238;2023-07-28T08:49:22;98133.88;;;19.88;100.00
16431;BME280;8325;49.284;7.238;2023-07-28T08:53:33;98138.22;;;20.16;100.00
16431;BME280;8325;49.284;7.238;2023-07-28T08:57:45;98144.22;;;20.28;100.00
16431;BME280;8325;49.284;7.238;2023-07-28T09:01:57;98148.81;;;20.16;100.00
16431;BME280;8325;49.284;7.238;2023-07-28T09:06:10;98159.31;;;20.06;100.00
16431;BME280;8325;49.284;7.238;2023-07-28T09:10:22;98164.38;;;19.90;100.00
16431;BME280;8325;49.284;7.238;2023-07-28T09:14:37;98156.75;;;19.94;100.00
16431;BME280;8325;49.284;7.238;2023-07-28T09:18:49;98160.41;;;19.71;100.00
16431;BME280;8325;49.284;7.238;2023-07-28T09:23:01;98164.41;;;19.73;100.00
16431;BME280;8325;49.284;7.238;2023-07-28T09:31:33;98179.66;;;19.49;100.00
16431;BME280;8325;49.284;7.238;2023-07-28T09:35:49;98174.81;;;19.29;100.00
16431;BME280;8325;49.284;7.238;2023-07-28T09:40:02;98184.38;;;19.30;100.00
16431;BME280;8325;49.284;7.238;2023-07-28T09:44:16;98183.31;;;19.31;100.00
16431;BME280;8325;49.284;7.238;2023-07-28T09:48:31;98185.59;;;19.40;100.00
16431;BME280;8325;49.284;7.238;2023-07-28T09:52:46;98188.22;;;19.40;100.00
16431;BME280;8325;49.284;7.238;2023-07-28T09:56:59;98189.25;;;19.39;100.00
16431;BME280;8325;49.284;7.238;2023-07-28T10:01:11;98190.88;;;19.40;100.00
16431;BME280;8325;49.284;7.238;2023-07-28T10:05:23;98193.91;;;19.31;100.00
16431;BME280;8325;49.284;7.238;2023-07-28T10:09:36;98197.94;;;19.34;100.00
16431;BME280;8325;49.284;7.238;2023-07-28T10:13:51;98189.88;;;19.29;100.00
16431;BME280;8325;49.284;7.238;2023-07-28T10:18:06;98196.94;;;19.23;100.00
16431;BME280;8325;49.284;7.238;2023-07-28T10:22:18;98208.44;;;19.29;100.00
16431;BME280;8325;49.284;7.238;2023-07-28T10:26:38;98208.19;;;19.30;100.00
16431;BME280;8325;49.284;7.238;2023-07-28T10:30:52;98207.16;;;19.31;100.00
16431;BME280;8325;49.284;7.238;2023-07-28T10:39:27;98224.69;;;19.21;100.00
16431;BME280;8325;49.284;7.238;2023-07-28T10:43:39;98224.50;;;19.11;100.00
16431;BME280;8325;49.284;7.238;2023-07-28T10:47:52;98235.13;;;18.99;100.00
16431;BME280;8325;49.284;7.238;2023-07-28T10:52:04;98225.81;;;18.96;100.00
16431;BME280;8325;49.284;7.238;2023-07-28T10:56:15;98232.53;;;18.87;100.00
16431;BME280;8325;49.284;7.238;2023-07-28T11:00:27;98232.78;;;18.85;100.00
16431;BME280;8325;49.284;7.238;2023-07-28T11:04:45;98234.03;;;18.83;100.00
16431;BME280;8325;49.284;7.238;2023-07-28T11:08:58;98227.34;;;18.92;100.00
16431;BME280;8325;49.284;7.238;2023-07-28T11:13:10;98224.56;;;18.99;100.00
16431;BME280;8325;49.284;7.238;2023-07-28T11:17:44;98219.41;;;18.92;100.00
16431;BME280;8325;49.284;7.238;2023-07-28T11:21:57;98222.84;;;18.93;100.00
16431;BME280;8325;49.284;7.238;2023-07-28T11:26:10;98219.69;;;19.07;100.00
16431;BME280;8325;49.284;7.238;2023-07-28T11:30:23;98223.19;;;19.25;100.00
16431;BME280;8325;49.284;7.238;2023-07-28T11:34:35;98216.69;;;19.32;100.00
16431;BME280;8325;49.284;7.238;2023-07-28T11:38:47;98215.03;;;19.43;100.00
16431;BME280;8325;49.284;7.238;2023-07-28T11:42:59;98208.47;;;19.63;100.00
16431;BME280;8325;49.284;7.238;2023-07-28T11:47:17;98210.50;;;19.72;100.00
16431;BME280;8325;49.284;7.238;2023-07-28T11:51:29;98208.72;;;19.78;100.00
16431;BME280;8325;49.284;7.238;2023-07-28T11:55:40;98208.00;;;19.83;100.00
16431;BME280;8325;49.284;7.238;2023-07-28T11:59:53;98212.59;;;19.87;100.00
16431;BME280;8325;49.284;7.238;2023-07-28T12:04:25;98201.97;;;19.87;100.00
16431;BME280;8325;49.284;7.238;2023-07-28T12:08:39;98209.84;;;19.82;100.00
16431;BME280;8325;49.284;7.238;2023-07-28T12:12:51;98214.69;;;19.68;100.00
16431;BME280;8325;49.284;7.238;2023-07-28T12:17:13;98210.47;;;19.55;100.00
16431;BME280;8325;49.284;7.238;2023-07-28T12:21:27;98212.34;;;19.26;100.00
16431;BME280;8325;49.284;7.238;2023-07-28T12:25:39;98215.72;;;19.22;100.00
16431;BME280;8325;49.284;7.238;2023-07-28T12:29:51;98207.41;;;19.01;100.00
16431;BME280;8325;49.284;7.238;2023-07-28T12:34:14;98204.66;;;18.96;100.00
16431;BME280;8325;49.284;7.238;2023-07-28T12:38:28;98207.88;;;18.98;100.00
16431;BME280;8325;49.284;7.238;2023-07-28T12:42:43;98215.50;;;18.95;100.00
16431;BME280;8325;49.284;7.238;2023-07-28T12:46:57;98208.34;;;18.95;100.00
16431;BME280;8325;49.284;7.238;2023-07-28T12:51:09;98205.69;;;18.95;100.00
16431;BME280;8325;49.284;7.238;2023-07-28T12:55:21;98211.38;;;19.16;100.00
16431;BME280;8325;49.284;7.238;2023-07-28T12:59:32;98214.09;;;19.21;100.00
16431;BME280;8325;49.284;7.238;2023-07-28T13:03:45;98217.97;;;19.30;100.00
16431;BME280;8325;49.284;7.238;2023-07-28T13:07:56;98216.22;;;19.36;100.00
16431;BME280;8325;49.284;7.238;2023-07-28T13:12:11;98216.53;;;19.39;100.00
16431;BME280;8325;49.284;7.238;2023-07-28T13:16:25;98217.97;;;19.30;100.00
16431;BME280;8325;49.284;7.238;2023-07-28T13:20:37;98224.88;;;19.31;100.00
16431;BME280;8325;49.284;7.238;2023-07-28T13:24:48;98225.50;;;19.21;100.00
16431;BME280;8325;49.284;7.238;2023-07-28T13:29:00;98228.22;;;19.09;100.00
16431;BME280;8325;49.284;7.238;2023-07-28T13:33:13;98223.59;;;19.05;100.00
16431;BME280;8325;49.284;7.238;2023-07-28T13:37:24;98222.84;;;18.93;100.00
16431;BME280;8325;49.284;7.238;2023-07-28T13:41:36;98236.31;;;18.91;100.00
16431;BME280;8325;49.284;7.238;2023-07-28T13:45:48;98230.81;;;18.81;100.00
16431;BME280;8325;49.284;7.238;2023-07-28T13:50:00;98236.22;;;18.86;100.00
16431;BME280;8325;49.284;7.238;2023-07-28T13:54:12;98232.63;;;18.92;100.00
16431;BME280;8325;49.284;7.238;2023-07-28T13:58:26;98234.16;;;18.88;100.00
16431;BME280;8325;49.284;7.238;2023-07-28T14:02:39;98230.47;;;18.89;100.00
16431;BME280;8325;49.284;7.238;2023-07-28T14:06:51;98236.31;;;18.91;100.00
16431;BME280;8325;49.284;7.238;2023-07-28T14:11:03;98233.22;;;18.94;100.00
16431;BME280;8325;49.284;7.238;2023-07-28T14:15:14;98237.47;;;18.95;100.00
16431;BME280;8325;49.284;7.238;2023-07-28T14:19:26;98236.00;;;18.88;100.00
16431;BME280;8325;49.284;7.238;2023-07-28T14:23:38;98237.28;;;18.85;100.00
16431;BME280;8325;49.284;7.238;2023-07-28T14:27:49;98239.06;;;18.96;100.00
16431;BME280;8325;49.284;7.238;2023-07-28T14:32:01;98242.00;;;19.12;100.00
16431;BME280;8325;49.284;7.238;2023-07-28T14:36:12;98229.75;;;19.22;100.00
16431;BME280;8325;49.284;7.238;2023-07-28T14:40:24;98229.38;;;19.30;100.00
16431;BME280;8325;49.284;7.238;2023-07-28T14:44:36;98233.16;;;19.35;100.00
16431;BME280;8325;49.284;7.238;2023-07-28T14:48:48;98233.47;;;19.38;100.00
16431;BME280;8325;49.284;7.238;2023-07-28T14:53:01;98225.94;;;19.47;100.00
16431;BME280;8325;49.284;7.238;2023-07-28T14:57:13;98225.16;;;19.46;100.00
16431;BME280;8325;49.284;7.238;2023-07-28T15:01:43;98232.16;;;19.52;100.00
16431;BME280;8325;49.284;7.238;2023-07-28T15:05:55;98233.84;;;19.59;100.00
16431;BME280;8325;49.284;7.238;2023-07-28T15:10:07;98230.41;;;19.75;100.00
16431;BME280;8325;49.284;7.238;2023-07-28T15:14:18;98226.31;;;19.84;100.00
16431;BME280;8325;49.284;7.238;2023-07-28T15:18:30;98215.16;;;19.99;100.00
16431;BME280;8325;49.284;7.238;2023-07-28T15:22:42;98227.66;;;20.04;100.00
16431;BME280;8325;49.284;7.238;2023-07-28T15:26:53;98227.25;;;19.95;100.00
16431;BME280;8325;49.284;7.238;2023-07-28T15:31:05;98241.47;;;20.06;100.00
16431;BME280;8325;49.284;7.238;2023-07-28T15:35:17;98236.00;;;20.12;100.00
16431;BME280;8325;49.284;7.238;2023-07-28T15:39:28;98237.94;;;20.17;100.00
16431;BME280;8325;49.284;7.238;2023-07-28T15:43:40;98232.31;;;20.13;100.00
16431;BME280;8325;49.284;7.238;2023-07-28T15:47:51;98242.38;;;19.94;100.00
16431;BME280;8325;49.284;7.238;2023-07-28T15:52:03;98234.09;;;19.91;100.00
16431;BME280;8325;49.284;7.238;2023-07-28T15:56:15;98237.22;;;19.88;100.00
16431;BME280;8325;49.284;7.238;2023-07-28T16:00:26;98234.41;;;19.94;100.00
16431;BME280;8325;49.284;7.238;2023-07-28T16:04:38;98234.00;;;20.03;100.00
16431;BME280;8325;49.284;7.238;2023-07-28T16:08:50;98234.72;;;20.15;100.00
16431;BME280;8325;49.284;7.238;2023-07-28T16:13:06;98230.53;;;20.19;100.00
16431;BME280;8325;49.284;7.238;2023-07-28T16:17:18;98234.56;;;20.21;100.00
16431;BME280;8325;49.284;7.238;2023-07-28T16:21:29;98226.50;;;20.16;100.00
16431;BME280;8325;49.284;7.238;2023-07-28T16:25:41;98231.84;;;19.99;100.00
16431;BME280;8325;49.284;7.238;2023-07-28T16:29:53;98225.75;;;19.99;100.00
16431;BME280;8325;49.284;7.238;2023-07-28T16:34:04;98224.94;;;19.98;100.00
16431;BME280;8325;49.284;7.238;2023-07-28T16:38:16;98219.47;;;19.88;100.00
16431;BME280;8325;49.284;7.238;2023-07-28T16:42:27;98229.94;;;19.78;100.00
16431;BME280;8325;49.284;7.238;2023-07-28T16:46:39;98230.41;;;19.75;100.00
16431;BME280;8325;49.284;7.238;2023-07-28T16:50:50;98217.38;;;19.73;100.00
16431;BME280;8325;49.284;7.238;2023-07-28T16:55:02;98226.47;;;19.77;100.00
16431;BME280;8325;49.284;7.238;2023-07-28T16:59:14;98223.19;;;19.87;100.00
16431;BME280;8325;49.284;7.238;2023-07-28T17:03:26;98223.28;;;19.92;100.00
16431;BME280;8325;49.284;7.238;2023-07-28T17:07:39;98229.44;;;19.98;100.00
16431;BME280;8325;49.284;7.238;2023-07-28T17:11:50;98222.22;;;19.93;100.00
16431;BME280;8325;49.284;7.238;2023-07-28T17:16:02;98234.91;;;19.91;100.00
16431;BME280;8325;49.284;7.238;2023-07-28T17:20:13;98226.41;;;19.89;100.00
16431;BME280;8325;49.284;7.238;2023-07-28T17:24:25;98233.31;;;19.90;100.00
16431;BME280;8325;49.284;7.238;2023-07-28T17:28:38;98227.19;;;19.90;100.00
16431;BME280;8325;49.284;7.238;2023-07-28T17:32:49;98230.34;;;19.87;100.00
16431;BME280;8325;49.284;7.238;2023-07-28T17:37:01;98237.13;;;19.83;100.00
16431;BME280;8325;49.284;7.238;2023-07-28T17:41:13;98234.97;;;19.80;100.00
16431;BME280;8325;49.284;7.238;2023-07-28T17:45:24;98233.84;;;19.75;100.00
16431;BME280;8325;49.284;7.238;2023-07-28T17:49:36;98236.19;;;19.72;100.00
16431;BME280;8325;49.284;7.238;2023-07-28T17:53:48;98223.03;;;19.77;100.00
16431;BME280;8325;49.284;7.238;2023-07-28T17:58:00;98232.56;;;19.78;100.00
16431;BME280;8325;49.284;7.238;2023-07-28T18:02:12;98233.63;;;19.77;100.00
16431;BME280;8325;49.284;7.238;2023-07-28T18:06:23;98247.59;;;19.72;100.00
16431;BME280;8325;49.284;7.238;2023-07-28T18:10:35;98246.16;;;19.65;100.00
16431;BME280;8325;49.284;7.238;2023-07-28T18:14:47;98259.75;;;19.57;100.00
16431;BME280;8325;49.284;7.238;2023-07-28T18:18:58;98261.81;;;19.54;100.00
16431;BME280;8325;49.284;7.238;2023-07-28T18:23:10;98265.19;;;19.50;100.00
16431;BME280;8325;49.284;7.238;2023-07-28T18:27:22;98266.16;;;19.44;100.00
16431;BME280;8325;49.284;7.238;2023-07-28T18:31:33;98268.97;;;19.37;100.00
16431;BME280;8325;49.284;7.238;2023-07-28T18:35:45;98264.94;;;19.35;100.00
16431;BME280;8325;49.284;7.238;2023-07-28T18:39:57;98267.47;;;19.29;100.00
16431;BME280;8325;49.284;7.238;2023-07-28T18:44:08;98253.91;;;19.26;100.00
16431;BME280;8325;49.284;7.238;2023-07-28T18:48:20;98254.38;;;19.23;100.00
16431;BME280;8325;49.284;7.238;2023-07-28T18:52:32;98260.72;;;19.22;100.00
16431;BME280;8325;49.284;7.238;2023-07-28T18:56:44;98261.44;;;19.17;100.00
16431;BME280;8325;49.284;7.238;2023-07-28T19:00:56;98263.16;;;19.12;100.00
16431;BME280;8325;49.284;7.238;2023-07-28T19:05:08;98250.88;;;19.05;100.00
16431;BME280;8325;49.284;7.238;2023-07-28T19:09:20;98255.28;;;19.00;100.00
16431;BME280;8325;49.284;7.238;2023-07-28T19:13:31;98254.94;;;18.96;100.00
16431;BME280;8325;49.284;7.238;2023-07-28T19:17:43;98247.38;;;18.88;100.00
16431;BME280;8325;49.284;7.238;2023-07-28T19:21:57;98251.97;;;18.81;100.00
16431;BME280;8325;49.284;7.238;2023-07-28T19:26:09;98246.38;;;18.77;100.00
16431;BME280;8325;49.284;7.238;2023-07-28T19:30:20;98235.66;;;18.72;100.00
16431;BME280;8325;49.284;7.238;2023-07-28T19:34:32;98243.25;;;18.69;100.00
16431;BME280;8325;49.284;7.238;2023-07-28T19:38:44;98243.97;;;18.64;100.00
16431;BME280;8325;49.284;7.238;2023-07-28T19:42:55;98240.72;;;18.62;100.00
16431;BME280;8325;49.284;7.238;2023-07-28T19:47:07;98243.63;;;18.60;100.00
16431;BME280;8325;49.284;7.238;2023-07-28T19:51:18;98246.28;;;18.60;100.00
16431;BME280;8325;49.284;7.238;2023-07-28T19:55:31;98235.69;;;18.60;100.00
16431;BME280;8325;49.284;7.238;2023-07-28T19:59:42;98238.56;;;18.59;100.00
16431;BME280;8325;49.284;7.238;2023-07-28T20:03:54;98228.78;;;18.59;100.00
16431;BME280;8325;49.284;7.238;2023-07-28T20:08:05;98241.78;;;18.61;100.00
16431;BME280;8325;49.284;7.238;2023-07-28T20:12:17;98252.03;;;18.57;100.00
16431;BME280;8325;49.284;7.238;2023-07-28T20:16:31;98247.41;;;18.53;100.00
16431;BME280;8325;49.284;7.238;2023-07-28T20:20:43;98251.78;;;18.47;100.00
16431;BME280;8325;49.284;7.238;2023-07-28T20:24:54;98249.59;;;18.44;100.00
16431;BME280;8325;49.284;7.238;2023-07-28T20:29:06;98253.28;;;18.43;100.00
16431;BME280;8325;49.284;7.238;2023-07-28T20:33:19;98259.38;;;18.44;100.00
16431;BME280;8325;49.284;7.238;2023-07-28T20:37:30;98263.66;;;18.45;100.00
16431;BME280;8325;49.284;7.238;2023-07-28T20:41:42;98258.38;;;18.45;100.00
16431;BME280;8325;49.284;7.238;2023-07-28T20:45:54;98254.69;;;18.46;100.00
16431;BME280;8325;49.284;7.238;2023-07-28T20:50:06;98258.38;;;18.45;100.00
16431;BME280;8325;49.284;7.238;2023-07-28T20:54:17;98252.25;;;18.44;100.00
16431;BME280;8325;49.284;7.238;2023-07-28T20:58:29;98253.06;;;18.45;100.00
16431;BME280;8325;49.284;7.238;2023-07-28T21:02:40;98244.91;;;18.46;100.00
16431;BME280;8325;49.284;7.238;2023-07-28T21:06:52;98245.94;;;18.45;100.00
16431;BME280;8325;49.284;7.238;2023-07-28T21:11:04;98241.66;;;18.44;100.00
16431;BME280;8325;49.284;7.238;2023-07-28T21:15:15;98237.44;;;18.43;100.00
16431;BME280;8325;49.284;7.238;2023-07-28T21:19:27;98227.91;;;18.42;100.00
16431;BME280;8325;49.284;7.238;2023-07-28T21:23:39;98216.75;;;18.40;100.00
16431;BME280;8325;49.284;7.238;2023-07-28T21:27:50;98221.44;;;18.38;100.00
